Time;durP1;ratioP1;P1;durP2;ratioP2;P2;SDS_P1;SDS_P2;PMS_P1;PMS_P2;Temp;Humidity;BMP_temperature;BMP_pressure;BME280_temperature;BME280_humidity;BME280_pressure;Samples;Min_cycle;Max_cycle;Signal;HPM_P1;HPM_P2
2023/03/27 00:01:14;;;;;;;3.80;0.25;;;1.90;99.90;;;;;;5011236;28;20030;-86
2023/03/27 00:03:41;;;;;;;4.15;0.20;;;1.90;99.90;;;;;;5011166;28;20026;-87
2023/03/27 00:06:15;;;;;;;4.18;0.20;;;1.90;99.90;;;;;;4991516;28;20042;-86
2023/03/27 00:08:42;;;;;;;3.47;0.20;;;1.80;99.90;;;;;;5010468;28;20033;-86
2023/03/27 00:11:08;;;;;;;2.03;0.20;;;1.70;99.90;;;;;;4990757;28;20018;-86
2023/03/27 00:13:35;;;;;;;3.10;0.20;;;1.70;99.90;;;;;;5010012;28;20042;-85
2023/03/27 00:16:01;;;;;;;1.15;0.10;;;1.70;99.90;;;;;;5024568;28;20019;-86
2023/03/27 00:18:28;;;;;;;5.15;0.30;;;1.70;99.90;;;;;;5008921;28;20030;-86
2023/03/27 00:20:57;;;;;;;2.42;0.20;;;1.70;99.90;;;;;;5025828;28;20032;-86
2023/03/27 00:23:23;;;;;;;3.30;0.20;;;1.70;99.90;;;;;;5004062;28;20390;-87
2023/03/27 00:25:50;;;;;;;7.30;0.20;;;1.70;99.90;;;;;;5008251;28;20469;-87
2023/03/27 00:28:17;;;;;;;4.75;0.20;;;1.60;99.90;;;;;;5009660;28;20069;-86
2023/03/27 00:30:43;;;;;;;2.83;0.20;;;1.60;99.90;;;;;;5010738;28;20048;-85
2023/03/27 00:33:12;;;;;;;3.85;0.20;;;1.60;99.90;;;;;;5008996;28;20042;-86
2023/03/27 00:35:43;;;;;;;2.63;0.20;;;1.60;99.90;;;;;;5008046;28;20034;-86
2023/03/27 00:38:09;;;;;;;2.58;0.10;;;1.60;99.90;;;;;;5005268;28;20030;-86
2023/03/27 00:40:36;;;;;;;3.95;0.20;;;1.60;99.90;;;;;;4993699;28;20393;-84
2023/03/27 00:43:21;;;;;;;8.50;0.40;;;1.50;99.90;;;;;;5008929;28;20362;-87
2023/03/27 00:45:49;;;;;;;4.80;0.22;;;1.60;99.90;;;;;;5010071;28;20457;-86
2023/03/27 00:48:18;;;;;;;4.90;0.30;;;1.50;99.90;;;;;;5010746;28;20026;-86
2023/03/27 00:50:45;;;;;;;7.43;0.30;;;1.60;99.90;;;;;;5010351;28;20112;-87
2023/03/27 00:53:20;;;;;;;2.45;0.25;;;1.50;99.90;;;;;;4989413;28;20042;-87
2023/03/27 00:55:50;;;;;;;3.75;0.28;;;1.50;99.90;;;;;;5007682;28;20437;-85
2023/03/27 00:58:25;;;;;;;2.00;0.30;;;1.50;99.90;;;;;;5026455;28;20030;-87
2023/03/27 01:00:54;;;;;;;1.63;0.40;;;1.40;99.90;;;;;;5009813;28;20033;-86
2023/03/27 01:03:21;;;;;;;3.53;0.13;;;1.50;99.90;;;;;;5008701;28;20122;-87
2023/03/27 01:05:49;;;;;;;5.93;0.20;;;1.40;99.90;;;;;;4991810;28;20394;-86
2023/03/27 01:08:16;;;;;;;2.03;0.20;;;1.40;99.90;;;;;;5009701;28;20030;-86
2023/03/27 01:11:04;;;;;;;3.58;0.30;;;1.40;99.90;;;;;;5009073;28;20084;-86
2023/03/27 01:13:56;;;;;;;2.17;0.10;;;1.30;99.90;;;;;;4984738;28;20566;-84
2023/03/27 01:16:59;;;;;;;4.88;0.20;;;1.30;99.90;;;;;;5000282;28;20040;-86
2023/03/27 01:19:55;;;;;;;3.55;0.30;;;1.40;99.90;;;;;;5023231;28;20030;-85
2023/03/27 01:22:47;;;;;;;2.40;0.20;;;1.40;99.90;;;;;;4988436;28;20038;-86
2023/03/27 01:25:31;;;;;;;2.75;0.65;;;1.30;99.90;;;;;;5007676;28;20030;-86
2023/03/27 01:28:07;;;;;;;4.47;0.20;;;1.30;99.90;;;;;;5010013;28;20045;-82
2023/03/27 01:30:38;;;;;;;0.98;0.10;;;1.30;99.90;;;;;;4991169;28;20092;-85
2023/03/27 01:33:32;;;;;;;2.47;0.20;;;1.30;99.90;;;;;;4991391;28;20450;-86
2023/03/27 01:36:07;;;;;;;2.10;0.20;;;1.30;99.90;;;;;;5004516;28;20026;-86
2023/03/27 01:39:10;;;;;;;1.90;0.17;;;1.20;99.90;;;;;;5008040;28;20033;-86
2023/03/27 01:41:52;;;;;;;1.90;0.10;;;1.20;99.90;;;;;;4992675;28;20469;-86
2023/03/27 01:44:49;;;;;;;4.20;0.10;;;1.20;99.90;;;;;;4993310;28;20055;-86
2023/03/27 01:47:23;;;;;;;0.95;0.10;;;1.20;99.90;;;;;;4992707;28;20018;-87
2023/03/27 01:50:08;;;;;;;0.73;0.00;;;1.10;99.90;;;;;;5007399;28;20152;-86
2023/03/27 01:52:39;;;;;;;0.82;0.10;;;1.00;99.90;;;;;;4992485;28;20021;-86
2023/03/27 01:55:11;;;;;;;1.17;0.10;;;0.80;99.90;;;;;;5006339;28;20029;-87
2023/03/27 01:58:03;;;;;;;1.75;0.10;;;0.90;99.90;;;;;;5024887;28;20029;-87
2023/03/27 02:00:31;;;;;;;1.02;0.10;;;1.00;99.90;;;;;;5015319;28;20041;-86
2023/03/27 02:03:14;;;;;;;3.90;0.22;;;1.00;99.90;;;;;;5008491;28;20054;-87
2023/03/27 02:05:50;;;;;;;3.05;0.20;;;1.00;99.90;;;;;;5004313;28;20029;-87
2023/03/27 02:08:26;;;;;;;4.10;0.30;;;1.00;99.90;;;;;;5001470;28;20540;-84
2023/03/27 02:10:58;;;;;;;2.70;0.38;;;1.10;99.90;;;;;;4990240;28;20029;-87
2023/03/27 02:13:37;;;;;;;5.88;0.50;;;1.20;99.90;;;;;;5007718;28;20030;-87
2023/03/27 02:16:06;;;;;;;4.35;0.20;;;1.10;99.90;;;;;;5019137;28;20125;-87
2023/03/27 02:18:36;;;;;;;2.13;0.17;;;1.10;99.90;;;;;;5008347;28;20026;-88
2023/03/27 02:21:03;;;;;;;3.75;0.20;;;1.10;99.90;;;;;;5005135;28;20037;-86
2023/03/27 02:23:31;;;;;;;5.03;0.40;;;1.10;99.90;;;;;;4991936;28;20038;-86
2023/03/27 02:25:58;;;;;;;4.68;0.20;;;1.10;99.90;;;;;;5008103;28;20390;-87
2023/03/27 02:28:59;;;;;;;4.68;0.20;;;1.10;99.90;;;;;;5002761;28;20042;-88
2023/03/27 02:31:55;;;;;;;2.22;0.20;;;1.10;99.90;;;;;;4988435;28;20030;-84
2023/03/27 02:34:52;;;;;;;3.97;0.20;;;1.10;99.90;;;;;;4982292;28;20054;-85
2023/03/27 02:37:27;;;;;;;3.70;0.20;;;1.10;99.90;;;;;;5000607;28;20042;-83
2023/03/27 02:40:27;;;;;;;5.32;0.20;;;1.10;99.90;;;;;;5017004;28;20072;-87
2023/03/27 02:43:19;;;;;;;4.00;0.30;;;1.10;99.90;;;;;;5010438;28;20030;-85
2023/03/27 02:46:04;;;;;;;4.10;0.20;;;1.10;99.90;;;;;;5004438;28;20034;-85
2023/03/27 02:48:42;;;;;;;7.72;0.30;;;1.10;99.90;;;;;;5003075;28;20474;-83
2023/03/27 02:51:14;;;;;;;2.60;0.20;;;1.20;99.90;;;;;;4986122;28;20034;-85
2023/03/27 02:54:20;;;;;;;2.65;0.43;;;1.20;99.90;;;;;;4985015;28;20048;-87
2023/03/27 02:56:51;;;;;;;3.13;0.30;;;1.20;99.90;;;;;;4991851;28;20117;-86
2023/03/27 02:59:34;;;;;;;6.38;0.40;;;1.20;99.90;;;;;;5017222;28;20031;-86
2023/03/27 03:02:03;;;;;;;3.55;0.20;;;1.20;99.90;;;;;;5002200;28;20439;-84
2023/03/27 03:04:44;;;;;;;2.55;0.30;;;1.20;99.90;;;;;;4986734;28;20026;-87
2023/03/27 03:07:21;;;;;;;4.45;0.20;;;1.20;99.90;;;;;;4995514;28;20471;-85
2023/03/27 03:09:47;;;;;;;2.63;0.20;;;1.20;99.90;;;;;;4996434;28;20559;-86
2023/03/27 03:12:12;;;;;;;2.78;0.20;;;1.10;99.90;;;;;;4984597;28;20109;-86
2023/03/27 03:14:45;;;;;;;3.90;0.32;;;1.10;99.90;;;;;;4985837;28;20145;-86
2023/03/27 03:17:13;;;;;;;2.35;0.30;;;1.20;99.90;;;;;;4984796;28;20531;-85
2023/03/27 03:19:39;;;;;;;6.15;0.30;;;1.20;99.90;;;;;;5001560;28;20061;-87
2023/03/27 03:22:05;;;;;;;3.55;0.30;;;1.20;99.90;;;;;;4997599;28;20034;-86
2023/03/27 03:24:36;;;;;;;1.75;0.30;;;1.20;99.90;;;;;;4986782;28;20033;-88
2023/03/27 03:27:03;;;;;;;3.80;0.20;;;1.10;99.90;;;;;;5004738;28;20402;-85
2023/03/27 03:29:35;;;;;;;2.03;0.20;;;1.10;99.90;;;;;;5003351;28;20037;-86
2023/03/27 03:32:25;;;;;;;3.22;0.20;;;1.00;99.90;;;;;;5000814;28;20368;-85
2023/03/27 03:34:52;;;;;;;2.35;0.28;;;1.00;99.90;;;;;;5019992;28;20035;-85
2023/03/27 03:37:18;;;;;;;1.70;0.10;;;1.00;99.90;;;;;;5020889;28;20034;-86
2023/03/27 03:39:45;;;;;;;0.65;0.10;;;0.90;99.90;;;;;;4986167;28;20026;-87
2023/03/27 03:42:11;;;;;;;1.00;0.10;;;0.90;99.90;;;;;;5002985;28;20030;-86
2023/03/27 03:44:37;;;;;;;4.40;0.10;;;0.90;99.90;;;;;;4970957;28;20383;-86
2023/03/27 03:47:15;;;;;;;0.98;0.10;;;1.00;99.90;;;;;;5001341;28;20026;-85
2023/03/27 03:49:41;;;;;;;3.85;0.20;;;1.00;99.90;;;;;;5000089;28;20058;-86
2023/03/27 03:52:07;;;;;;;1.20;0.20;;;1.00;99.90;;;;;;5003348;28;20029;-86
2023/03/27 03:54:33;;;;;;;1.42;0.20;;;1.00;99.90;;;;;;5019791;28;20124;-87
2023/03/27 03:56:58;;;;;;;2.80;0.20;;;1.00;99.90;;;;;;4986319;28;20031;-86
2023/03/27 03:59:25;;;;;;;2.85;0.30;;;1.00;99.90;;;;;;4982981;28;20039;-87
2023/03/27 04:02:29;;;;;;;3.15;0.22;;;1.10;99.90;;;;;;5005160;28;20113;-87
2023/03/27 04:05:03;;;;;;;3.00;0.55;;;1.20;99.90;;;;;;4975794;28;20069;-87
2023/03/27 04:07:34;;;;;;;4.82;0.30;;;1.20;99.90;;;;;;4988355;28;20034;-84
2023/03/27 04:10:15;;;;;;;4.03;0.20;;;1.30;99.90;;;;;;5008893;28;20391;-85
2023/03/27 04:12:48;;;;;;;3.13;0.20;;;1.30;99.90;;;;;;5007750;28;20030;-86
2023/03/27 04:15:26;;;;;;;4.30;0.40;;;1.40;99.90;;;;;;4987700;28;20050;-86
2023/03/27 04:18:10;;;;;;;4.45;0.40;;;1.40;99.90;;;;;;5017694;28;20065;-83
2023/03/27 04:20:37;;;;;;;3.78;0.40;;;1.60;99.90;;;;;;5006131;28;20034;-85
2023/03/27 04:23:06;;;;;;;5.05;0.30;;;1.70;99.90;;;;;;5007896;28;20031;-86
2023/03/27 04:25:36;;;;;;;1.42;0.30;;;1.80;99.90;;;;;;4985752;28;20022;-86
2023/03/27 04:28:02;;;;;;;2.97;0.32;;;1.80;99.90;;;;;;4988558;28;20047;-84
2023/03/27 04:30:33;;;;;;;8.40;0.20;;;1.80;99.90;;;;;;4990354;28;20038;-84
2023/03/27 04:33:17;;;;;;;1.85;0.20;;;1.80;99.90;;;;;;4988660;28;20050;-85
2023/03/27 04:36:01;;;;;;;4.15;0.20;;;1.80;99.90;;;;;;5016981;28;20117;-82
2023/03/27 04:38:35;;;;;;;3.33;0.10;;;1.70;99.90;;;;;;5002225;28;20483;-83
2023/03/27 04:41:02;;;;;;;2.20;0.00;;;1.60;99.90;;;;;;5023139;28;20080;-85
2023/03/27 04:43:28;;;;;;;1.60;0.10;;;1.60;99.90;;;;;;4991345;28;20045;-84
2023/03/27 04:45:54;;;;;;;0.52;0.10;;;1.50;99.90;;;;;;5007083;28;20092;-84
2023/03/27 04:48:21;;;;;;;1.13;0.00;;;1.50;99.90;;;;;;5003719;28;20546;-83
2023/03/27 04:50:50;;;;;;;;;;;1.50;99.90;;;;;;5004602;28;20036;-84
2023/03/27 04:53:31;;;;;;;0.50;0.00;;;1.50;99.90;;;;;;5022850;28;19917;-84
2023/03/27 04:55:57;;;;;;;0.82;0.00;;;1.50;99.90;;;;;;4989255;28;20204;-85
2023/03/27 04:58:24;;;;;;;0.57;0.03;;;1.40;99.90;;;;;;4973117;28;20022;-85
2023/03/27 05:00:54;;;;;;;2.40;0.03;;;1.40;99.90;;;;;;4972173;28;20052;-85
2023/03/27 05:03:55;;;;;;;1.40;0.00;;;1.30;99.90;;;;;;4937568;29;20068;-84
2023/03/27 05:06:33;;;;;;;1.17;0.00;;;1.20;99.90;;;;;;4933969;29;20476;-85
2023/03/27 05:09:00;;;;;;;0.28;0.00;;;1.20;99.90;;;;;;4924157;29;20087;-85
2023/03/27 05:11:30;;;;;;;1.77;0.00;;;1.20;99.90;;;;;;4939320;29;20048;-85
2023/03/27 05:13:56;;;;;;;0.28;0.00;;;1.10;99.90;;;;;;4912546;29;20422;-85
2023/03/27 05:16:25;;;;;;;0.75;0.00;;;1.10;99.90;;;;;;4953234;28;20697;-86
2023/03/27 05:18:55;;;;;;;1.05;0.00;;;1.00;99.90;;;;;;4932227;29;20078;-85
2023/03/27 05:21:21;;;;;;;2.03;0.03;;;1.10;99.90;;;;;;4945360;29;20059;-87
2023/03/27 05:23:47;;;;;;;0.60;0.00;;;1.00;99.90;;;;;;4912537;29;20024;-84
2023/03/27 05:26:13;;;;;;;1.60;0.08;;;1.10;99.90;;;;;;4943315;29;20027;-85
2023/03/27 05:28:50;;;;;;;1.83;0.10;;;1.10;99.90;;;;;;4913115;29;20044;-86
2023/03/27 05:31:16;;;;;;;1.02;0.03;;;1.10;99.90;;;;;;4929495;29;20032;-86
2023/03/27 05:34:04;;;;;;;0.75;0.10;;;1.00;99.90;;;;;;4914126;29;20039;-86
2023/03/27 05:36:34;;;;;;;0.98;0.10;;;1.00;99.90;;;;;;4928383;29;20024;-84
2023/03/27 05:39:00;;;;;;;1.67;0.10;;;1.00;99.90;;;;;;5019251;28;20026;-87
2023/03/27 05:41:35;;;;;;;0.30;0.10;;;1.00;99.90;;;;;;4968839;28;20118;-85
2023/03/27 05:44:04;;;;;;;0.50;0.10;;;1.00;99.90;;;;;;4989317;28;20031;-86
2023/03/27 05:46:34;;;;;;;1.48;0.10;;;1.00;99.90;;;;;;5002956;28;20113;-87
2023/03/27 05:49:25;;;;;;;2.38;0.10;;;1.00;99.90;;;;;;4984360;28;20376;-86
2023/03/27 05:51:57;;;;;;;0.63;0.10;;;1.00;99.90;;;;;;4971116;28;20068;-87
2023/03/27 05:54:23;;;;;;;1.45;0.10;;;1.10;99.90;;;;;;4999349;28;20494;-87
2023/03/27 05:56:54;;;;;;;1.67;0.20;;;1.10;99.90;;;;;;4968903;28;20031;-87
2023/03/27 05:59:19;;;;;;;0.38;0.10;;;1.20;99.90;;;;;;4987797;28;20038;-85
2023/03/27 06:01:49;;;;;;;1.58;0.20;;;1.20;99.90;;;;;;4999285;28;20023;-84
2023/03/27 06:04:20;;;;;;;2.65;0.32;;;1.20;99.90;;;;;;4985166;28;20401;-85
2023/03/27 06:07:01;;;;;;;2.08;0.22;;;1.30;99.90;;;;;;5007710;28;20510;-86
2023/03/27 06:09:27;;;;;;;1.48;0.20;;;1.40;99.90;;;;;;4985876;28;20034;-85
2023/03/27 06:12:17;;;;;;;0.90;0.20;;;1.40;99.90;;;;;;4982433;28;20030;-85
2023/03/27 06:14:43;;;;;;;0.70;0.10;;;1.40;99.90;;;;;;5004260;28;20182;-87
2023/03/27 06:17:37;;;;;;;2.90;0.20;;;1.40;99.90;;;;;;5015869;28;20482;-86
2023/03/27 06:20:14;;;;;;;1.70;0.10;;;1.40;99.90;;;;;;5004472;28;20042;-86
2023/03/27 06:22:55;;;;;;;1.85;0.30;;;1.40;99.90;;;;;;4970326;28;20030;-87
2023/03/27 06:25:31;;;;;;;2.08;0.10;;;1.40;99.90;;;;;;5002981;28;20034;-86
2023/03/27 06:27:57;;;;;;;0.55;0.17;;;1.50;99.90;;;;;;5004957;28;20053;-85
2023/03/27 06:30:25;;;;;;;2.60;0.30;;;1.60;99.90;;;;;;4988707;28;20034;-85
2023/03/27 06:33:16;;;;;;;1.85;0.20;;;1.60;99.90;;;;;;4987496;28;20037;-86
2023/03/27 06:35:44;;;;;;;1.48;0.28;;;1.70;99.90;;;;;;4988098;28;20049;-86
2023/03/27 06:38:15;;;;;;;2.00;0.30;;;1.80;99.90;;;;;;5002001;28;20462;-86
2023/03/27 06:40:41;;;;;;;4.00;0.20;;;1.80;99.90;;;;;;4966848;28;20242;-84
2023/03/27 06:43:09;;;;;;;1.20;0.30;;;2.00;99.90;;;;;;5018645;28;20065;-86
2023/03/27 06:45:48;;;;;;;6.05;0.50;;;2.00;99.90;;;;;;5002530;28;20081;-85
2023/03/27 06:48:32;;;;;;;1.20;0.32;;;2.10;99.90;;;;;;4988664;28;20097;-85
2023/03/27 06:51:01;;;;;;;5.35;0.50;;;2.20;99.90;;;;;;5002590;28;20026;-86
2023/03/27 06:53:28;;;;;;;1.95;0.40;;;2.30;99.90;;;;;;4969409;28;20042;-85
2023/03/27 06:55:54;;;;;;;3.63;0.45;;;2.50;99.90;;;;;;5004067;28;20026;-85
2023/03/27 06:58:21;;;;;;;2.83;0.40;;;2.60;99.90;;;;;;4971710;28;20039;-85
2023/03/27 07:00:48;;;;;;;2.78;0.40;;;2.80;99.90;;;;;;5003334;28;20022;-87
2023/03/27 07:03:21;;;;;;;1.35;0.40;;;2.80;99.90;;;;;;5018149;28;20030;-87
2023/03/27 07:06:11;;;;;;;2.97;0.45;;;2.80;99.90;;;;;;4974879;28;20026;-86
2023/03/27 07:08:51;;;;;;;5.43;0.50;;;2.70;99.90;;;;;;4986659;28;20026;-86
2023/03/27 07:11:17;;;;;;;1.40;0.40;;;2.70;99.90;;;;;;4987961;28;20030;-86
2023/03/27 07:13:51;;;;;;;2.08;1.05;;;2.80;99.90;;;;;;4997977;28;20042;-86
2023/03/27 07:16:24;;;;;;;2.95;0.70;;;2.90;99.90;;;;;;4984252;28;20502;-86
2023/03/27 07:18:50;;;;;;;3.05;0.60;;;3.00;99.90;;;;;;4986011;28;20085;-86
2023/03/27 07:21:16;;;;;;;4.65;0.50;;;2.90;99.90;;;;;;5002969;28;20487;-85
2023/03/27 07:23:42;;;;;;;2.20;0.50;;;3.00;99.90;;;;;;4983885;28;20042;-86
2023/03/27 07:26:10;;;;;;;3.88;0.52;;;2.90;99.90;;;;;;4983300;28;20026;-86
2023/03/27 07:28:55;;;;;;;2.15;0.47;;;3.00;99.90;;;;;;4983738;28;20070;-86
2023/03/27 07:31:21;;;;;;;2.65;0.45;;;3.10;99.90;;;;;;5004157;28;20035;-85
2023/03/27 07:33:47;;;;;;;6.53;0.50;;;3.40;99.90;;;;;;4985190;28;20129;-86
2023/03/27 07:36:13;;;;;;;4.38;0.70;;;3.50;99.90;;;;;;5007087;28;20124;-86
2023/03/27 07:38:46;;;;;;;1.63;0.30;;;3.70;99.90;;;;;;4987938;28;20038;-87
2023/03/27 07:41:21;;;;;;;5.55;0.65;;;3.70;99.90;;;;;;5005572;28;20038;-86
2023/03/27 07:43:56;;;;;;;3.25;0.50;;;3.40;99.90;;;;;;4991185;28;20104;-85
2023/03/27 07:46:22;;;;;;;6.88;0.47;;;3.60;99.90;;;;;;5008024;28;20030;-87
2023/03/27 07:48:49;;;;;;;3.80;0.50;;;3.70;99.90;;;;;;5007474;28;20034;-86
2023/03/27 07:51:18;;;;;;;5.72;0.68;;;3.70;99.90;;;;;;5018121;28;20507;-86
2023/03/27 07:53:44;;;;;;;4.45;0.43;;;3.70;99.90;;;;;;4974096;28;20054;-85
2023/03/27 07:56:19;;;;;;;4.07;0.60;;;3.80;99.90;;;;;;5005344;28;20395;-87
2023/03/27 07:58:46;;;;;;;5.78;0.40;;;3.90;99.90;;;;;;4988945;28;20042;-86
2023/03/27 08:01:17;;;;;;;2.25;0.38;;;4.00;99.90;;;;;;5024260;28;20034;-85
2023/03/27 08:03:48;;;;;;;8.20;0.45;;;4.10;99.90;;;;;;5006794;28;20026;-87
2023/03/27 08:06:15;;;;;;;4.00;0.40;;;4.10;99.90;;;;;;4972679;28;20022;-86
2023/03/27 08:08:41;;;;;;;5.80;0.50;;;4.10;99.90;;;;;;4986586;28;20024;-86
2023/03/27 08:11:07;;;;;;;4.72;0.40;;;4.00;99.90;;;;;;4991426;28;20037;-86
2023/03/27 08:13:38;;;;;;;4.32;0.40;;;4.20;99.90;;;;;;5003924;28;20093;-86
2023/03/27 08:16:08;;;;;;;4.10;0.40;;;4.20;99.90;;;;;;5002102;28;20033;-85
2023/03/27 08:18:36;;;;;;;5.10;0.40;;;4.10;99.90;;;;;;4990305;28;20129;-86
2023/03/27 08:21:04;;;;;;;4.97;0.40;;;3.90;99.90;;;;;;4987945;28;20096;-86
2023/03/27 08:23:32;;;;;;;3.38;0.40;;;4.10;99.90;;;;;;5006669;28;20030;-85
2023/03/27 08:26:07;;;;;;;4.43;0.20;;;4.20;99.90;;;;;;5021123;28;20034;-84
2023/03/27 08:28:56;;;;;;;2.58;0.13;;;4.30;99.90;;;;;;5003064;28;20121;-85
2023/03/27 08:31:24;;;;;;;3.55;0.10;;;4.20;99.90;;;;;;4988110;28;20490;-86
2023/03/27 08:33:52;;;;;;;3.33;0.52;;;4.70;99.90;;;;;;4968512;28;20061;-85
2023/03/27 08:36:23;;;;;;;3.08;0.40;;;4.70;99.90;;;;;;4988346;28;20070;-85
2023/03/27 08:38:53;;;;;;;4.82;0.50;;;4.90;99.90;;;;;;5022664;28;20423;-84
2023/03/27 08:41:29;;;;;;;4.63;0.30;;;5.10;99.90;;;;;;5005962;28;20023;-85
2023/03/27 08:44:23;;;;;;;4.40;0.30;;;5.10;99.90;;;;;;5000888;28;20034;-88
2023/03/27 08:47:01;;;;;;;4.28;0.35;;;5.40;99.90;;;;;;4988322;28;20534;-87
2023/03/27 08:49:38;;;;;;;4.43;0.30;;;5.50;99.90;;;;;;5005875;28;20089;-84
2023/03/27 08:52:27;;;;;;;3.60;0.38;;;5.30;99.90;;;;;;4989528;28;20431;-85
2023/03/27 08:55:06;;;;;;;3.85;0.40;;;5.60;99.90;;;;;;4989467;28;20034;-87
2023/03/27 08:57:36;;;;;;;3.78;0.30;;;5.70;99.90;;;;;;4987450;28;20158;-85
2023/03/27 09:00:20;;;;;;;3.08;0.35;;;5.90;99.90;;;;;;5020704;28;20031;-87
2023/03/27 09:03:03;;;;;;;4.80;0.40;;;6.20;99.90;;;;;;5004755;28;20026;-86
2023/03/27 09:05:47;;;;;;;7.38;0.30;;;6.00;99.90;;;;;;4968172;28;20038;-85
2023/03/27 09:08:54;;;;;;;6.75;0.30;;;6.20;99.90;;;;;;4989428;28;20022;-87
2023/03/27 09:11:44;;;;;;;2.53;0.20;;;6.00;99.90;;;;;;5001622;28;20023;-87
2023/03/27 09:14:44;;;;;;;4.85;0.32;;;5.70;99.90;;;;;;5005923;28;20038;-86
2023/03/27 09:17:22;;;;;;;0.85;0.10;;;5.10;99.90;;;;;;4963747;28;20038;-85
2023/03/27 09:19:54;;;;;;;0.85;0.10;;;4.80;99.90;;;;;;4998645;28;20116;-84
2023/03/27 09:22:39;;;;;;;1.50;0.10;;;4.90;99.90;;;;;;4971276;28;20563;-85
2023/03/27 09:25:36;;;;;;;1.48;0.10;;;4.80;99.90;;;;;;4986528;28;20030;-86
2023/03/27 09:28:35;;;;;;;1.38;0.08;;;4.80;99.90;;;;;;4990169;28;20427;-86
2023/03/27 09:31:26;;;;;;;4.47;0.90;;;5.10;99.90;;;;;;4971513;28;20030;-86
2023/03/27 09:33:54;;;;;;;2.88;0.10;;;5.50;99.90;;;;;;5021695;28;20077;-86
2023/03/27 09:36:21;;;;;;;0.88;0.05;;;5.60;99.90;;;;;;5000284;28;20018;-86
2023/03/27 09:38:52;;;;;;;1.23;0.10;;;5.70;99.90;;;;;;5000844;28;20042;-85
2023/03/27 09:41:22;;;;;;;2.28;0.20;;;5.80;99.90;;;;;;4971386;28;20038;-86
2023/03/27 09:44:08;;;;;;;1.80;0.10;;;5.90;99.90;;;;;;5001787;28;20390;-85
2023/03/27 09:46:43;;;;;;;3.17;0.10;;;6.10;99.90;;;;;;5006223;28;20031;-85
2023/03/27 09:49:12;;;;;;;1.20;0.10;;;6.30;99.90;;;;;;4971731;28;20022;-85
2023/03/27 09:51:43;;;;;;;1.52;0.30;;;6.00;99.90;;;;;;4998894;28;20137;-85
2023/03/27 09:54:31;;;;;;;3.28;0.10;;;6.20;99.90;;;;;;4972482;28;20034;-86
2023/03/27 09:57:05;;;;;;;3.10;0.28;;;6.40;99.90;;;;;;4988172;28;20022;-85
2023/03/27 09:59:36;;;;;;;1.40;0.28;;;6.50;99.90;;;;;;4983897;28;20027;-86
2023/03/27 10:02:29;;;;;;;1.52;0.10;;;6.70;99.90;;;;;;5017902;28;20485;-86
2023/03/27 10:05:10;;;;;;;1.85;0.10;;;7.10;99.90;;;;;;5005282;28;20467;-87
2023/03/27 10:07:40;;;;;;;1.77;0.10;;;7.10;99.90;;;;;;4982309;28;20030;-84
2023/03/27 10:10:19;;;;;;;1.27;0.10;;;6.40;99.90;;;;;;4987183;28;20038;-85
2023/03/27 10:13:10;;;;;;;1.98;0.10;;;5.70;99.90;;;;;;5016234;28;20030;-85
2023/03/27 10:15:42;;;;;;;1.85;0.10;;;4.60;99.90;;;;;;5005085;28;20073;-86
2023/03/27 10:18:28;;;;;;;2.63;0.15;;;4.00;99.90;;;;;;5021482;28;20072;-83
2023/03/27 10:21:37;;;;;;;1.70;0.10;;;3.80;99.90;;;;;;4984737;28;20026;-85
2023/03/27 10:24:15;;;;;;;1.55;0.10;;;3.80;99.90;;;;;;4987849;28;20042;-85
2023/03/27 10:27:03;;;;;;;2.40;0.10;;;3.80;99.90;;;;;;4999805;28;20048;-86
2023/03/27 10:29:33;;;;;;;2.10;0.10;;;4.40;99.90;;;;;;5000834;28;20065;-86
2023/03/27 10:32:02;;;;;;;2.88;0.10;;;4.90;99.90;;;;;;5003575;28;20029;-85
2023/03/27 10:34:56;;;;;;;2.67;0.10;;;5.30;99.90;;;;;;4971879;28;20038;-86
2023/03/27 10:37:34;;;;;;;2.53;0.40;;;5.50;99.90;;;;;;5018228;28;20034;-85
2023/03/27 10:40:26;;;;;;;3.65;0.10;;;5.90;99.90;;;;;;4974054;28;20110;-86
2023/03/27 10:43:01;;;;;;;3.83;0.20;;;6.10;99.90;;;;;;5016875;28;20034;-86
2023/03/27 10:45:29;;;;;;;2.75;0.20;;;6.40;99.90;;;;;;5021185;28;20022;-86
2023/03/27 10:48:00;;;;;;;3.97;0.10;;;6.40;99.90;;;;;;4985869;28;20037;-85
2023/03/27 10:50:42;;;;;;;4.22;0.20;;;6.40;99.90;;;;;;5020573;28;20026;-87
2023/03/27 10:53:29;;;;;;;2.20;0.10;;;6.30;99.90;;;;;;4984107;28;20037;-86
2023/03/27 10:56:16;;;;;;;1.42;0.10;;;6.80;99.90;;;;;;4998843;28;20149;-86
2023/03/27 10:58:50;;;;;;;2.53;0.10;;;6.90;99.90;;;;;;5003009;28;20045;-87
2023/03/27 11:01:40;;;;;;;2.13;0.20;;;7.10;99.90;;;;;;5004840;28;20042;-86
2023/03/27 11:04:19;;;;;;;2.55;0.20;;;7.20;99.90;;;;;;4966927;28;20077;-87
2023/03/27 11:06:53;;;;;;;0.85;0.10;;;7.10;99.90;;;;;;4998462;28;20459;-86
2023/03/27 11:09:30;;;;;;;1.25;0.10;;;7.40;99.90;;;;;;4990999;28;20084;-86
2023/03/27 11:12:10;;;;;;;4.95;0.20;;;7.50;99.90;;;;;;5006719;28;20030;-87
2023/03/27 11:15:09;;;;;;;3.30;0.10;;;7.60;99.90;;;;;;5004001;28;20034;-86
2023/03/27 11:17:53;;;;;;;1.95;0.10;;;7.80;99.90;;;;;;5008471;28;20026;-87
2023/03/27 11:20:34;;;;;;;5.05;0.20;;;7.80;99.90;;;;;;4975042;28;20360;-87
2023/03/27 11:24:03;;;;;;;2.72;0.22;;;7.90;99.90;;;;;;5004444;28;20022;-84
2023/03/27 11:27:04;;;;;;;4.10;0.20;;;8.00;99.90;;;;;;4955572;28;20979;-86
2023/03/27 11:29:38;;;;;;;2.15;0.13;;;7.50;99.90;;;;;;4936427;28;20027;-87
2023/03/27 11:32:29;;;;;;;4.07;0.10;;;7.20;99.90;;;;;;4949652;28;20042;-86
2023/03/27 11:35:16;;;;;;;5.13;0.20;;;7.10;99.90;;;;;;4948703;28;20035;-87
2023/03/27 11:38:31;;;;;;;3.33;0.20;;;7.40;99.90;;;;;;4968513;28;20398;-86
2023/03/27 11:41:00;;;;;;;3.95;0.20;;;7.90;99.90;;;;;;4934982;28;20049;-87
2023/03/27 11:43:26;;;;;;;2.13;0.10;;;7.60;99.90;;;;;;4938467;28;20023;-86
2023/03/27 11:46:05;;;;;;;2.33;0.20;;;7.30;99.90;;;;;;4936293;28;20493;-86
2023/03/27 11:48:57;;;;;;;2.65;0.20;;;7.30;99.90;;;;;;4948359;28;20046;-86
2023/03/27 11:51:32;;;;;;;0.80;0.10;;;6.50;99.90;;;;;;4954908;28;20053;-86
2023/03/27 11:53:58;;;;;;;1.15;0.03;;;4.50;99.90;;;;;;4938277;28;20071;-86
2023/03/27 11:56:54;;;;;;;1.35;0.00;;;3.70;99.90;;;;;;4944962;28;20097;-84
2023/03/27 11:59:42;;;;;;;1.17;0.10;;;3.70;99.90;;;;;;4992145;28;20054;-86
2023/03/27 12:02:21;;;;;;;0.82;0.00;;;3.80;99.90;;;;;;5006456;28;20022;-86
2023/03/27 12:04:56;;;;;;;0.47;0.00;;;3.80;99.90;;;;;;4991959;28;20024;-86
2023/03/27 12:07:48;;;;;;;2.53;0.10;;;4.20;99.90;;;;;;5024654;28;20398;-85
2023/03/27 12:10:35;;;;;;;1.48;0.10;;;4.70;99.90;;;;;;5009938;28;20521;-85
2023/03/27 12:13:41;;;;;;;4.32;0.10;;;4.90;99.90;;;;;;4999600;28;20503;-86
2023/03/27 12:16:16;;;;;;;1.70;0.10;;;4.90;99.90;;;;;;5008785;28;20070;-85
2023/03/27 12:19:30;;;;;;;3.92;0.20;;;5.50;99.90;;;;;;5004597;28;20368;-85
2023/03/27 12:22:50;;;;;;;3.03;0.13;;;5.80;99.90;;;;;;5010144;28;20109;-85
2023/03/27 12:26:05;;;;;;;2.00;0.20;;;6.20;99.90;;;;;;4986569;28;20027;-85
2023/03/27 12:29:11;;;;;;;6.28;0.30;;;6.50;99.90;;;;;;4988744;28;20046;-85
2023/03/27 12:31:44;;;;;;;5.78;0.10;;;6.90;99.90;;;;;;5003393;28;20027;-86
2023/03/27 12:34:28;;;;;;;1.45;0.20;;;7.30;99.90;;;;;;5004419;28;20089;-85
2023/03/27 12:36:55;;;;;;;2.90;0.20;;;6.90;99.90;;;;;;5006708;28;20483;-86
2023/03/27 12:39:26;;;;;;;1.75;0.10;;;6.80;99.90;;;;;;4974158;28;20038;-86
2023/03/27 12:41:55;;;;;;;2.03;0.10;;;6.40;99.90;;;;;;5005225;28;20076;-87
2023/03/27 12:44:30;;;;;;;2.00;0.10;;;6.30;99.90;;;;;;5000128;28;20034;-86
2023/03/27 12:47:04;;;;;;;2.13;0.10;;;6.30;99.90;;;;;;5001841;28;20070;-86
2023/03/27 12:49:42;;;;;;;2.35;0.10;;;6.30;99.90;;;;;;4973110;28;20022;-86
2023/03/27 12:52:11;;;;;;;;;;;6.50;99.90;;;;;;5022016;28;20029;-86
2023/03/27 12:55:12;;;;;;;1.05;0.10;;;6.60;99.90;;;;;;4988173;28;19917;-86
2023/03/27 12:57:57;;;;;;;3.25;0.20;;;6.70;99.90;;;;;;4990426;28;20069;-86
2023/03/27 13:00:58;;;;;;;2.65;0.10;;;6.70;99.90;;;;;;4969566;28;20507;-87
2023/03/27 13:03:50;;;;;;;1.77;0.20;;;6.40;99.90;;;;;;4968241;28;20049;-87
2023/03/27 13:06:24;;;;;;;2.78;0.30;;;6.10;99.90;;;;;;4970001;28;20065;-84
2023/03/27 13:09:28;;;;;;;1.65;0.17;;;5.60;99.90;;;;;;4969548;28;20107;-84
2023/03/27 13:12:11;;;;;;;1.65;0.20;;;5.10;99.90;;;;;;4968586;28;20066;-86
2023/03/27 13:14:48;;;;;;;0.90;0.10;;;4.90;99.90;;;;;;4965399;28;20522;-85
2023/03/27 13:17:28;;;;;;;1.95;0.55;;;4.80;99.90;;;;;;4968146;28;20522;-86
2023/03/27 13:20:21;;;;;;;2.50;0.22;;;4.70;99.90;;;;;;4977929;28;20412;-85
2023/03/27 13:23:00;;;;;;;1.30;0.10;;;4.50;99.90;;;;;;4952394;28;20027;-84
2023/03/27 13:25:30;;;;;;;;;;;4.50;99.90;;;;;;4954358;28;20074;-85
2023/03/27 13:28:24;;;;;;;1.75;0.10;;;4.60;99.90;;;;;;4953136;28;19965;-85
2023/03/27 13:30:59;;;;;;;1.60;0.20;;;4.60;99.90;;;;;;4967546;28;20487;-84
2023/03/27 13:33:46;;;;;;;2.63;0.17;;;4.60;99.90;;;;;;4967307;28;20041;-85
2023/03/27 13:36:23;;;;;;;3.90;0.38;;;4.80;99.90;;;;;;4973891;28;20034;-84
2023/03/27 13:38:56;;;;;;;2.35;0.20;;;5.20;99.90;;;;;;4985458;28;20097;-85
2023/03/27 13:41:42;;;;;;;1.80;0.10;;;5.70;99.90;;;;;;4988287;28;20030;-84
2023/03/27 13:44:34;;;;;;;3.25;0.20;;;6.10;99.90;;;;;;4988296;28;20117;-84
2023/03/27 13:47:28;;;;;;;5.07;0.20;;;6.40;99.90;;;;;;5022156;28;20525;-84
2023/03/27 13:50:16;;;;;;;4.03;0.20;;;6.70;99.90;;;;;;4988095;28;20386;-84